createdAt,value
2018-08-23T00:02:24.876Z,21.50
2018-08-23T00:04:55.886Z,21.50
2018-08-23T00:07:27.055Z,21.40
2018-08-23T00:09:58.055Z,21.40
2018-08-23T00:12:34.076Z,21.40
2018-08-23T00:15:05.402Z,21.40
2018-08-23T00:17:40.319Z,21.40
2018-08-23T00:20:11.469Z,21.30
2018-08-23T00:22:42.536Z,21.30
2018-08-23T00:25:13.626Z,21.20
2018-08-23T00:27:45.459Z,21.20
2018-08-23T00:30:16.912Z,21.20
2018-08-23T00:32:47.917Z,21.20
2018-08-23T00:35:21.554Z,21.30
2018-08-23T00:37:52.585Z,21.30
2018-08-23T00:40:23.729Z,21.30
2018-08-23T00:43:00.665Z,21.20
2018-08-23T00:45:31.715Z,21.20
2018-08-23T00:48:02.682Z,21.20
2018-08-23T00:51:07.375Z,21.20
2018-08-23T00:53:38.768Z,21.10
2018-08-23T00:56:24.303Z,21.10
2018-08-23T00:59:01.698Z,21.00
2018-08-23T01:01:33.502Z,21.00
2018-08-23T01:04:04.414Z,21.00
2018-08-23T01:06:45.902Z,21.00
2018-08-23T01:09:16.895Z,20.90
2018-08-23T01:11:47.929Z,20.90
2018-08-23T01:14:20.677Z,20.90
2018-08-23T01:17:08.139Z,20.80
2018-08-23T01:19:44.221Z,20.90
2018-08-23T01:22:15.380Z,20.90
2018-08-23T01:24:51.035Z,20.90
2018-08-23T01:27:27.005Z,20.90
2018-08-23T01:29:58.049Z,20.90
2018-08-23T01:32:33.405Z,20.90
2018-08-23T01:35:04.639Z,20.80
2018-08-23T01:37:41.993Z,20.90
2018-08-23T01:40:14.806Z,20.80
2018-08-23T01:42:45.840Z,20.80
2018-08-23T01:47:54.784Z,20.70
2018-08-23T01:50:27.104Z,20.70
2018-08-23T01:52:58.487Z,20.70
2018-08-23T01:55:29.423Z,20.60
2018-08-23T01:58:00.363Z,20.60
2018-08-23T02:00:32.579Z,20.60
2018-08-23T02:03:04.069Z,20.60
2018-08-23T02:05:38.195Z,20.60
2018-08-23T02:08:09.263Z,20.60
2018-08-23T02:10:40.268Z,20.50
2018-08-23T02:13:16.677Z,20.50
2018-08-23T02:15:50.876Z,20.60
2018-08-23T02:18:21.927Z,20.50
2018-08-23T02:20:59.323Z,20.50
2018-08-23T02:23:48.587Z,20.50
2018-08-23T02:26:19.668Z,20.40
2018-08-23T02:28:55.536Z,20.40
2018-08-23T02:31:26.594Z,20.40
2018-08-23T02:33:57.697Z,20.40
2018-08-23T02:36:28.641Z,20.40
2018-08-23T02:39:08.422Z,20.40
2018-08-23T02:44:33.564Z,20.30
2018-08-23T02:47:04.965Z,20.30
2018-08-23T02:49:39.021Z,20.20
2018-08-23T02:52:10.511Z,20.20
2018-08-23T02:54:41.590Z,20.10
2018-08-23T02:57:13.254Z,20.10
2018-08-23T02:59:44.352Z,20.20
2018-08-23T03:02:15.939Z,20.20
2018-08-23T03:04:46.903Z,20.20
2018-08-23T03:07:18.859Z,20.10
2018-08-23T03:09:49.904Z,20.10
2018-08-23T03:12:21.994Z,20.10
2018-08-23T03:14:58.668Z,20.00
2018-08-23T03:17:32.628Z,20.00
2018-08-23T03:20:09.649Z,20.00
2018-08-23T03:22:41.285Z,19.90
2018-08-23T03:25:14.433Z,19.80
2018-08-23T03:27:45.501Z,19.90
2018-08-23T04:34:16.071Z,20.40
2018-08-23T04:36:49.817Z,20.70
2018-08-23T04:39:21.923Z,21.00
2018-08-23T04:42:00.840Z,21.30
2018-08-23T04:44:47.772Z,21.40
2018-08-23T04:47:18.819Z,21.50
2018-08-23T04:50:14.023Z,21.90
2018-08-23T04:55:51.523Z,22.70
2018-08-23T04:58:33.204Z,23.20
2018-08-23T05:01:04.337Z,23.60
2018-08-23T05:03:35.928Z,24.10
2018-08-23T05:06:06.936Z,24.40
2018-08-23T05:08:49.456Z,24.70
2018-08-23T05:14:24.536Z,25.00
2018-08-23T05:16:55.876Z,25.30
2018-08-23T05:19:26.841Z,26.00
2018-08-23T05:21:58.228Z,26.60
2018-08-23T05:24:29.153Z,27.00
2018-08-23T05:40:52.312Z,27.50
2018-08-23T05:43:24.729Z,28.80
2018-08-23T05:45:57.879Z,29.20
2018-08-23T05:48:32.174Z,29.90
2018-08-23T05:54:05.753Z,30.50
2018-08-23T05:56:38.000Z,31.30
2018-08-23T05:59:14.714Z,31.50
2018-08-23T06:01:46.356Z,31.80
2018-08-23T06:04:25.007Z,31.90
2018-08-23T06:06:59.360Z,31.70
2018-08-23T08:24:02.064Z,44.70
2018-08-23T08:26:32.934Z,43.80
2018-08-23T08:29:04.190Z,44.10
2018-08-23T08:31:37.139Z,44.00
2018-08-23T08:34:08.252Z,44.30
2018-08-23T08:36:39.324Z,43.40
2018-08-23T08:39:11.531Z,43.40
2018-08-23T08:41:42.564Z,43.10
2018-08-23T08:44:15.934Z,43.50
2018-08-23T08:46:48.987Z,43.10
2018-08-23T08:49:54.335Z,43.40
2018-08-23T08:52:26.608Z,43.70
2018-08-23T08:54:57.659Z,43.70
2018-08-23T08:57:32.409Z,44.00
2018-08-23T09:00:03.927Z,44.20
2018-08-23T09:02:34.963Z,44.20
2018-08-23T09:05:06.162Z,44.70
2018-08-23T09:07:38.295Z,43.60
2018-08-23T09:10:10.465Z,43.60
2018-08-23T09:12:50.813Z,43.60
2018-08-23T09:15:24.293Z,42.60
2018-08-23T09:17:56.792Z,42.20
2018-08-23T09:23:42.201Z,41.80
2018-08-23T09:26:25.772Z,42.00
2018-08-23T09:28:56.708Z,42.00
2018-08-23T09:31:28.537Z,41.90
2018-08-23T09:34:04.067Z,42.30
2018-08-23T09:36:36.306Z,43.00
2018-08-23T09:39:11.523Z,43.20
2018-08-23T09:42:00.245Z,43.10
2018-08-23T09:44:31.265Z,42.60
2018-08-23T09:47:06.355Z,42.60
2018-08-23T09:49:37.507Z,42.30
2018-08-23T09:52:12.637Z,41.80
2018-08-23T09:54:43.751Z,41.80
2018-08-23T09:57:14.735Z,41.50
2018-08-23T09:59:50.753Z,41.80
2018-08-23T10:02:32.116Z,41.70
2018-08-23T10:05:05.842Z,41.60
2018-08-23T10:07:42.016Z,40.90
2018-08-23T10:10:18.102Z,40.70
2018-08-23T10:12:57.270Z,40.20
2018-08-23T10:15:33.430Z,40.10
2018-08-23T10:18:12.739Z,40.30
2018-08-23T10:20:48.831Z,40.80
2018-08-23T10:23:24.062Z,40.80
2018-08-23T10:25:58.351Z,40.80
2018-08-23T10:28:34.460Z,40.80
2018-08-23T10:31:05.830Z,41.30
2018-08-23T10:33:38.565Z,41.40
2018-08-23T10:36:09.527Z,41.70
2018-08-23T10:38:41.993Z,41.80
2018-08-23T10:41:13.122Z,41.00
2018-08-23T10:43:56.505Z,40.30
2018-08-23T10:46:35.706Z,40.30
2018-08-23T10:49:08.026Z,39.40
2018-08-23T10:51:39.732Z,39.10
2018-08-23T10:54:10.676Z,38.60
2018-08-23T10:56:41.789Z,38.50
2018-08-23T10:59:12.888Z,38.50
2018-08-23T11:01:43.885Z,38.30
2018-08-23T11:07:31.201Z,38.70
2018-08-23T11:10:07.317Z,39.30
2018-08-23T11:12:45.167Z,39.40
2018-08-23T11:15:24.888Z,39.80
2018-08-23T11:18:04.514Z,39.90
2018-08-23T11:20:40.544Z,39.60
2018-08-23T11:23:12.751Z,39.00
2018-08-23T11:25:43.716Z,38.50
2018-08-23T11:28:19.668Z,37.90
2018-08-23T11:30:51.204Z,38.00
2018-08-23T11:33:24.241Z,38.60
2018-08-23T11:35:55.214Z,38.70
2018-08-23T11:38:38.183Z,39.10
2018-08-23T11:41:14.344Z,39.10
2018-08-23T11:43:46.482Z,38.40
2018-08-23T11:46:29.102Z,38.60
2018-08-23T11:49:28.988Z,38.90
2018-08-23T11:52:17.656Z,39.30
2018-08-23T11:54:51.869Z,39.50
2018-08-23T11:57:23.099Z,39.60
2018-08-23T11:59:54.214Z,39.70
2018-08-23T12:16:28.238Z,39.60
2018-08-23T14:19:01.445Z,38.10
2018-08-23T14:21:37.948Z,36.60
2018-08-23T14:24:09.315Z,36.40
2018-08-23T14:26:43.222Z,36.30
2018-08-23T14:29:20.903Z,36.10
2018-08-23T14:31:54.679Z,36.00
2018-08-23T14:34:29.054Z,36.00
2018-08-23T14:37:11.329Z,35.00
2018-08-23T14:39:45.189Z,34.90
2018-08-23T14:42:16.225Z,34.50
2018-08-23T14:44:47.539Z,34.30
2018-08-23T14:47:37.575Z,34.20
2018-08-23T14:50:13.389Z,34.30
2018-08-23T14:52:47.246Z,34.40
2018-08-23T15:04:36.344Z,34.60
2018-08-23T15:07:32.753Z,34.50
2018-08-23T15:12:54.463Z,34.50
2018-08-23T15:15:51.902Z,34.50
2018-08-23T15:18:26.976Z,34.10
2018-08-23T15:21:02.436Z,34.00
2018-08-23T15:23:41.058Z,34.00
2018-08-23T15:26:18.786Z,33.90
2018-08-23T15:28:55.426Z,33.90
2018-08-23T15:34:20.331Z,33.90
2018-08-23T15:37:00.289Z,33.90
2018-08-23T15:39:44.205Z,34.10
2018-08-23T15:45:12.499Z,33.70
2018-08-23T15:47:45.373Z,33.60
2018-08-23T15:50:16.928Z,33.50
2018-08-23T15:55:30.845Z,33.70
2018-08-23T15:58:07.378Z,33.60
2018-08-23T16:00:43.112Z,33.50
2018-08-23T16:03:18.373Z,33.50
2018-08-23T16:05:51.755Z,33.30
2018-08-23T16:08:25.882Z,33.00
2018-08-23T16:10:56.882Z,32.60
2018-08-23T16:13:31.517Z,32.20
2018-08-23T16:16:16.209Z,32.00
2018-08-23T16:19:10.559Z,32.00
2018-08-23T16:21:56.084Z,32.00
2018-08-23T16:24:29.015Z,32.00
2018-08-23T16:27:13.045Z,31.70
2018-08-23T16:29:54.879Z,31.30
2018-08-23T16:32:42.785Z,31.10
2018-08-23T16:35:15.969Z,30.90
2018-08-23T16:37:50.898Z,30.80
2018-08-23T16:40:37.020Z,30.70
2018-08-23T16:43:18.283Z,30.60
2018-08-23T16:45:51.404Z,30.40
2018-08-23T16:48:40.497Z,30.30
2018-08-23T16:51:11.496Z,30.20
2018-08-23T16:53:53.738Z,30.20
2018-08-23T16:56:48.335Z,30.10
2018-08-23T16:59:24.500Z,30.00
2018-08-23T17:02:00.323Z,30.00
2018-08-23T17:04:37.623Z,29.80
2018-08-23T17:07:21.407Z,29.60
2018-08-23T17:10:08.304Z,29.60
2018-08-23T17:12:46.501Z,29.80
2018-08-23T17:15:21.223Z,29.70
2018-08-23T17:17:56.476Z,29.40
2018-08-23T17:20:28.574Z,29.30
2018-08-23T17:22:59.592Z,29.20
2018-08-23T17:25:31.407Z,29.30
2018-08-23T17:28:02.399Z,29.30
2018-08-23T17:30:35.102Z,29.30
2018-08-23T17:35:46.494Z,29.20
2018-08-23T17:38:21.196Z,28.90
2018-08-23T17:40:53.961Z,28.70
2018-08-23T17:43:25.281Z,28.50
2018-08-23T17:45:56.828Z,28.30
2018-08-23T17:48:32.931Z,27.90
2018-08-23T17:51:04.086Z,27.70
2018-08-23T17:53:40.146Z,27.50
2018-08-23T17:59:28.546Z,27.60
2018-08-23T18:27:19.747Z,27.80
2018-08-23T18:29:52.535Z,27.70
2018-08-23T18:32:26.090Z,27.80
2018-08-23T18:35:00.624Z,27.80
2018-08-23T18:37:32.953Z,27.80
2018-08-23T18:40:19.942Z,27.70
2018-08-23T18:43:08.168Z,27.70
2018-08-23T18:45:51.224Z,27.50
2018-08-23T18:48:35.220Z,27.40
2018-08-23T18:51:06.961Z,27.30
2018-08-23T18:53:37.964Z,27.30
2018-08-23T18:56:09.077Z,27.30
2018-08-23T18:58:40.158Z,27.30
2018-08-23T19:01:16.088Z,27.30
2018-08-23T19:29:56.370Z,27.00
2018-08-23T19:32:29.371Z,26.70
2018-08-23T19:38:48.613Z,26.70
2018-08-23T19:44:14.624Z,26.50
2018-08-23T19:47:05.824Z,26.50
2018-08-23T19:49:43.112Z,26.50
2018-08-23T19:52:14.015Z,26.50
2018-08-23T19:54:44.895Z,26.40
2018-08-23T19:57:46.712Z,26.30
2018-08-23T20:24:41.155Z,26.30
2018-08-23T20:27:11.621Z,26.00
2018-08-23T20:29:42.383Z,25.90
2018-08-23T20:32:14.392Z,26.00
2018-08-23T20:34:45.183Z,26.00
2018-08-23T20:37:16.040Z,26.00
2018-08-23T20:39:47.013Z,26.00
2018-08-23T20:42:17.685Z,26.00
2018-08-23T20:44:48.607Z,26.00
2018-08-23T20:47:19.795Z,26.00
2018-08-23T20:49:53.944Z,26.00
2018-08-23T20:52:24.901Z,26.00
2018-08-23T20:54:55.918Z,26.00
2018-08-23T20:57:26.758Z,25.90
2018-08-23T20:59:57.717Z,25.90
2018-08-23T21:02:28.732Z,25.80
2018-08-23T21:04:59.773Z,25.80
2018-08-23T21:07:34.952Z,25.70
2018-08-23T21:10:12.923Z,25.60
2018-08-23T21:12:45.216Z,25.60
2018-08-23T21:15:16.166Z,25.60
2018-08-23T21:17:47.394Z,25.50
2018-08-23T21:20:18.674Z,25.40
2018-08-23T21:22:54.800Z,25.30
2018-08-23T21:25:30.205Z,25.20
2018-08-23T21:28:01.278Z,25.20
2018-08-23T21:30:33.624Z,25.10
2018-08-23T21:33:06.437Z,25.00
2018-08-23T21:35:40.284Z,24.90
2018-08-23T21:38:11.332Z,24.90
2018-08-23T21:40:51.792Z,24.90
2018-08-23T21:43:28.847Z,24.90
2018-08-23T21:46:00.177Z,24.90
2018-08-23T21:48:31.805Z,24.90
2018-08-23T21:51:02.842Z,24.80
2018-08-23T21:53:33.945Z,24.70
2018-08-23T21:56:05.102Z,24.60
2018-08-23T21:58:41.064Z,24.70
2018-08-23T22:01:18.131Z,24.60
2018-08-23T22:03:49.207Z,24.60
2018-08-23T22:06:21.301Z,24.50
2018-08-23T22:08:56.746Z,24.20
2018-08-23T22:11:30.111Z,24.10
2018-08-23T22:14:01.099Z,23.90
2018-08-23T22:16:32.175Z,23.80
2018-08-23T22:19:04.527Z,23.80
2018-08-23T22:21:35.608Z,23.70
2018-08-23T22:24:08.300Z,23.50
2018-08-23T22:26:39.525Z,23.50
2018-08-23T22:29:10.564Z,23.30
2018-08-23T22:31:41.724Z,23.30
2018-08-23T22:34:14.693Z,23.30
2018-08-23T22:36:45.738Z,23.20
2018-08-23T22:39:18.633Z,23.10
2018-08-23T22:41:50.023Z,22.90
2018-08-23T22:44:32.502Z,22.80
2018-08-23T22:47:03.482Z,22.70
2018-08-23T22:49:35.542Z,22.70
2018-08-23T22:52:07.634Z,22.70
2018-08-23T22:54:38.574Z,22.80
2018-08-23T22:57:10.547Z,22.80
